Time;durP1;ratioP1;P1;durP2;ratioP2;P2;SDS_P1;SDS_P2;PMS_P1;PMS_P2;Temp;Humidity;BMP_temperature;BMP_pressure;BME280_temperature;BME280_humidity;BME280_pressure;Samples;Min_cycle;Max_cycle;Signal;HPM_P1;HPM_P2
2023/04/27 00:00:59;;;;;;;0.70;0.70;;;;;;;;;;5092636;27;93946;-65
2023/04/27 00:03:27;;;;;;;0.50;0.50;;;;;;;;;;5083151;27;92037;-65
2023/04/27 00:05:56;;;;;;;0.77;0.40;;;;;;;;;;5100925;27;92017;-65
2023/04/27 00:08:24;;;;;;;0.40;0.40;;;;;;;;;;5102741;27;94174;-65
2023/04/27 00:10:54;;;;;;;0.40;0.40;;;;;;;;;;5102856;27;93740;-65
2023/04/27 00:13:22;;;;;;;1.00;0.80;;;;;;;;;;5103097;27;92040;-65
2023/04/27 00:15:51;;;;;;;1.30;1.20;;;;;;;;;;5103156;27;92111;-65
2023/04/27 00:18:19;;;;;;;0.53;0.53;;;;;;;;;;5102354;27;95122;-65
2023/04/27 00:20:48;;;;;;;1.03;0.93;;;;;;;;;;5101489;27;94770;-65
2023/04/27 00:23:16;;;;;;;0.90;0.90;;;;;;;;;;5089891;27;92505;-65
2023/04/27 00:25:44;;;;;;;1.00;0.60;;;;;;;;;;5097400;27;91943;-65
2023/04/27 00:28:14;;;;;;;0.43;0.43;;;;;;;;;;5102992;27;94235;-65
2023/04/27 00:30:43;;;;;;;1.47;0.80;;;;;;;;;;5102324;27;93978;-65
2023/04/27 00:33:12;;;;;;;1.00;0.70;;;;;;;;;;5102390;27;92019;-65
2023/04/27 00:35:41;;;;;;;0.50;0.50;;;;;;;;;;5102795;27;91324;-65
2023/04/27 00:38:09;;;;;;;0.80;0.80;;;;;;;;;;5102733;27;94196;-65
2023/04/27 00:40:38;;;;;;;0.57;0.57;;;;;;;;;;5102417;27;94075;-65
2023/04/27 00:43:06;;;;;;;1.77;0.70;;;;;;;;;;5102360;27;93059;-65
2023/04/27 00:45:37;;;;;;;0.60;0.60;;;;;;;;;;5096200;27;92078;-65
2023/04/27 00:48:06;;;;;;;1.17;0.80;;;;;;;;;;5102279;27;94070;-65
2023/04/27 00:50:36;;;;;;;0.70;0.57;;;;;;;;;;5101854;27;93991;-65
2023/04/27 00:53:04;;;;;;;0.87;0.80;;;;;;;;;;5102689;27;92050;-65
2023/04/27 00:55:33;;;;;;;0.83;0.70;;;;;;;;;;5102621;27;92316;-65
2023/04/27 00:58:01;;;;;;;1.00;0.90;;;;;;;;;;5103262;27;94235;-65
2023/04/27 01:00:30;;;;;;;0.60;0.60;;;;;;;;;;5102208;27;93927;-65
2023/04/27 01:02:59;;;;;;;0.57;0.57;;;;;;;;;;5101693;27;93366;-65
2023/04/27 01:05:28;;;;;;;0.70;0.70;;;;;;;;;;5101107;27;92032;-65
2023/04/27 01:07:59;;;;;;;0.70;0.70;;;;;;;;;;5099050;27;95166;-65
2023/04/27 01:10:28;;;;;;;0.93;0.93;;;;;;;;;;5102531;27;93681;-65
2023/04/27 01:12:57;;;;;;;0.80;0.80;;;;;;;;;;5101792;27;92044;-65
2023/04/27 01:15:25;;;;;;;1.00;0.67;;;;;;;;;;5101962;27;92054;-65
2023/04/27 01:17:59;;;;;;;0.63;0.63;;;;;;;;;;5102060;27;94140;-65
2023/04/27 01:20:29;;;;;;;0.80;0.80;;;;;;;;;;5098250;27;97116;-65
2023/04/27 01:22:57;;;;;;;4.00;0.60;;;;;;;;;;5081692;27;91949;-65
2023/04/27 01:25:27;;;;;;;0.77;0.70;;;;;;;;;;5091234;27;91330;-65
2023/04/27 01:27:55;;;;;;;0.63;0.63;;;;;;;;;;5101670;27;93734;-65
2023/04/27 01:30:24;;;;;;;0.80;0.53;;;;;;;;;;5095473;27;96522;-65
2023/04/27 01:32:52;;;;;;;1.30;0.87;;;;;;;;;;5093579;27;93078;-59
2023/04/27 01:35:20;;;;;;;0.67;0.67;;;;;;;;;;5103426;27;91984;-59
2023/04/27 01:37:49;;;;;;;1.70;0.80;;;;;;;;;;5082417;27;94161;-59
2023/04/27 01:40:17;;;;;;;0.57;0.57;;;;;;;;;;5085813;27;93715;-59
2023/04/27 01:42:47;;;;;;;0.50;0.50;;;;;;;;;;5106964;27;92110;-59
2023/04/27 01:45:15;;;;;;;1.00;0.83;;;;;;;;;;5100480;27;91954;-59
2023/04/27 01:47:44;;;;;;;2.67;0.90;;;;;;;;;;5101842;27;94183;-59
2023/04/27 01:50:12;;;;;;;0.37;0.37;;;;;;;;;;5101536;27;93923;-59
2023/04/27 01:52:41;;;;;;;0.80;0.70;;;;;;;;;;5101165;27;92056;-59
2023/04/27 01:55:10;;;;;;;1.07;0.60;;;;;;;;;;5102326;27;92083;-59
2023/04/27 01:57:38;;;;;;;0.70;0.70;;;;;;;;;;5102912;27;94949;-59
2023/04/27 02:00:09;;;;;;;0.50;0.40;;;;;;;;;;5122163;27;94640;-59
2023/04/27 02:02:37;;;;;;;0.60;0.60;;;;;;;;;;5122632;27;92087;-60
2023/04/27 02:05:06;;;;;;;1.13;0.43;;;;;;;;;;5122509;27;92079;-60
2023/04/27 02:07:34;;;;;;;0.40;0.40;;;;;;;;;;5102925;27;94222;-59
2023/04/27 02:10:02;;;;;;;0.77;0.67;;;;;;;;;;5081996;27;93907;-59
2023/04/27 02:12:31;;;;;;;0.40;0.40;;;;;;;;;;5092197;27;92069;-59
2023/04/27 02:14:59;;;;;;;0.57;0.50;;;;;;;;;;5102190;27;91330;-59
2023/04/27 02:17:30;;;;;;;1.30;0.50;;;;;;;;;;5098281;27;94288;-59
2023/04/27 02:19:58;;;;;;;0.43;0.43;;;;;;;;;;5098584;27;93880;-59
2023/04/27 02:22:26;;;;;;;0.47;0.47;;;;;;;;;;5096374;27;93156;-59
2023/04/27 02:24:55;;;;;;;0.50;0.50;;;;;;;;;;5101169;27;92130;-59
2023/04/27 02:27:23;;;;;;;0.60;0.60;;;;;;;;;;5095930;27;94079;-59
2023/04/27 02:29:52;;;;;;;0.60;0.60;;;;;;;;;;5106916;27;93781;-59
2023/04/27 02:32:23;;;;;;;1.43;0.70;;;;;;;;;;5107084;27;92037;-59
2023/04/27 02:34:52;;;;;;;0.50;0.50;;;;;;;;;;5101155;27;91929;-59
2023/04/27 02:37:21;;;;;;;0.50;0.50;;;;;;;;;;5100773;27;94168;-60
2023/04/27 02:39:49;;;;;;;0.70;0.53;;;;;;;;;;5101444;27;93811;-58
2023/04/27 02:42:18;;;;;;;0.40;0.40;;;;;;;;;;5101288;27;91800;-59
2023/04/27 02:44:46;;;;;;;0.40;0.40;;;;;;;;;;5100693;27;92131;-59
2023/04/27 02:47:14;;;;;;;0.43;0.43;;;;;;;;;;5100330;27;94823;-59
2023/04/27 02:49:43;;;;;;;5.93;0.90;;;;;;;;;;5100825;27;94933;-59
2023/04/27 02:52:12;;;;;;;0.80;0.70;;;;;;;;;;5101120;27;92073;-58
2023/04/27 02:54:41;;;;;;;0.50;0.50;;;;;;;;;;5101051;27;92091;-58
2023/04/27 02:57:09;;;;;;;0.50;0.50;;;;;;;;;;5100930;27;94115;-59
2023/04/27 02:59:38;;;;;;;0.60;0.60;;;;;;;;;;5100683;27;93844;-61
2023/04/27 03:02:06;;;;;;;0.57;0.50;;;;;;;;;;5100484;27;91857;-59
2023/04/27 03:04:37;;;;;;;0.43;0.43;;;;;;;;;;5119100;27;91314;-59
2023/04/27 03:07:05;;;;;;;0.67;0.63;;;;;;;;;;5120816;27;93999;-59
2023/04/27 03:09:36;;;;;;;1.00;0.67;;;;;;;;;;5121401;27;94009;-61
2023/04/27 03:12:05;;;;;;;0.50;0.50;;;;;;;;;;5120973;27;93004;-59
2023/04/27 03:14:34;;;;;;;0.60;0.60;;;;;;;;;;5106057;27;92081;-58
2023/04/27 03:17:02;;;;;;;0.50;0.50;;;;;;;;;;5099105;27;94053;-59
2023/04/27 03:19:30;;;;;;;0.60;0.50;;;;;;;;;;5099950;27;93667;-59
2023/04/27 03:21:59;;;;;;;1.13;0.60;;;;;;;;;;5100217;27;91960;-61
2023/04/27 03:24:28;;;;;;;2.07;0.70;;;;;;;;;;5100478;27;91957;-58
2023/04/27 03:26:58;;;;;;;0.93;0.60;;;;;;;;;;5099240;27;94234;-59
2023/04/27 03:29:26;;;;;;;0.67;0.50;;;;;;;;;;5096495;27;93744;-60
2023/04/27 03:31:56;;;;;;;0.50;0.50;;;;;;;;;;5099983;27;91787;-58
2023/04/27 03:34:24;;;;;;;0.57;0.57;;;;;;;;;;5098876;27;92076;-59
2023/04/27 03:36:53;;;;;;;0.63;0.60;;;;;;;;;;5093944;27;95182;-61
2023/04/27 03:39:21;;;;;;;0.50;0.50;;;;;;;;;;5099051;27;95186;-61
2023/04/27 03:41:49;;;;;;;0.87;0.50;;;;;;;;;;5100713;27;92075;-60
2023/04/27 03:44:19;;;;;;;0.77;0.77;;;;;;;;;;5100748;27;92145;-58
2023/04/27 03:46:47;;;;;;;0.40;0.40;;;;;;;;;;5100165;27;94127;-61
2023/04/27 03:49:16;;;;;;;0.77;0.43;;;;;;;;;;5100200;27;92837;-59
2023/04/27 03:51:44;;;;;;;0.40;0.40;;;;;;;;;;5100303;27;92015;-60
2023/04/27 03:54:13;;;;;;;0.30;0.30;;;;;;;;;;5101941;27;91369;-59
2023/04/27 03:56:43;;;;;;;0.40;0.40;;;;;;;;;;5120651;27;94235;-61
2023/04/27 03:59:12;;;;;;;0.40;0.40;;;;;;;;;;5120355;27;93779;-61
2023/04/27 04:01:42;;;;;;;0.70;0.70;;;;;;;;;;5120231;27;93179;-60
2023/04/27 04:04:11;;;;;;;1.80;0.73;;;;;;;;;;5120870;27;92142;-60
2023/04/27 04:06:40;;;;;;;0.53;0.50;;;;;;;;;;5120322;27;94035;-61
2023/04/27 04:09:08;;;;;;;0.47;0.47;;;;;;;;;;5120204;27;93835;-58
2023/04/27 04:11:36;;;;;;;0.60;0.53;;;;;;;;;;5103070;27;92154;-59
2023/04/27 04:14:05;;;;;;;0.70;0.70;;;;;;;;;;5103737;27;91922;-61
2023/04/27 04:16:33;;;;;;;0.60;0.60;;;;;;;;;;5101996;27;94396;-60
2023/04/27 04:19:03;;;;;;;1.00;0.50;;;;;;;;;;5103377;27;93798;-59
2023/04/27 04:21:31;;;;;;;0.40;0.40;;;;;;;;;;5103013;27;91951;-58
2023/04/27 04:24:00;;;;;;;0.83;0.50;;;;;;;;;;5089824;27;92037;-60
2023/04/27 04:26:29;;;;;;;1.50;0.40;;;;;;;;;;5112664;27;94964;-60
2023/04/27 04:28:57;;;;;;;2.40;0.47;;;;;;;;;;5123775;27;94816;-60
2023/04/27 04:31:30;;;;;;;0.37;0.37;;;;;;;;;;5105454;27;92200;-61
2023/04/27 04:33:58;;;;;;;0.73;0.50;;;;;;;;;;5103502;27;91897;-58
2023/04/27 04:36:29;;;;;;;1.17;0.70;;;;;;;;;;5097975;27;94123;-58
2023/04/27 04:38:58;;;;;;;0.50;0.50;;;;;;;;;;5091806;27;94152;-59
2023/04/27 04:41:26;;;;;;;0.63;0.50;;;;;;;;;;5120148;27;92038;-58
2023/04/27 04:43:54;;;;;;;1.80;0.40;;;;;;;;;;5112958;27;93410;-58
2023/04/27 04:46:23;;;;;;;0.50;0.50;;;;;;;;;;5102669;27;94110;-59
2023/04/27 04:48:52;;;;;;;0.50;0.50;;;;;;;;;;5102562;27;93888;-58
2023/04/27 04:51:22;;;;;;;0.87;0.57;;;;;;;;;;5101963;27;93141;-59
2023/04/27 04:53:51;;;;;;;0.50;0.50;;;;;;;;;;5102216;27;91959;-59
2023/04/27 04:56:20;;;;;;;0.57;0.57;;;;;;;;;;5109849;27;94260;-58
2023/04/27 04:58:49;;;;;;;1.23;0.60;;;;;;;;;;5123306;27;93683;-59
2023/04/27 05:01:17;;;;;;;0.40;0.40;;;;;;;;;;5123550;27;92135;-59
2023/04/27 05:03:46;;;;;;;0.57;0.57;;;;;;;;;;5104327;27;92034;-59
2023/04/27 05:06:15;;;;;;;0.93;0.80;;;;;;;;;;5102699;27;94147;-59
2023/04/27 05:08:43;;;;;;;0.90;0.60;;;;;;;;;;5101670;27;93973;-59
2023/04/27 05:11:13;;;;;;;0.70;0.70;;;;;;;;;;5102023;27;92019;-59
2023/04/27 05:13:41;;;;;;;0.40;0.40;;;;;;;;;;5102051;27;92089;-59
2023/04/27 05:16:10;;;;;;;3.20;0.70;;;;;;;;;;5100825;27;95425;-59
2023/04/27 05:18:38;;;;;;;0.40;0.40;;;;;;;;;;5101239;27;94828;-59
2023/04/27 05:21:06;;;;;;;0.43;0.43;;;;;;;;;;5101993;27;91792;-59
2023/04/27 05:23:35;;;;;;;0.50;0.50;;;;;;;;;;5101466;27;92545;-59
2023/04/27 05:26:12;;;;;;;0.60;0.60;;;;;;;;;;5101451;27;94197;-59
2023/04/27 05:28:41;;;;;;;0.40;0.40;;;;;;;;;;5101572;27;94170;-59
2023/04/27 05:31:09;;;;;;;0.40;0.40;;;;;;;;;;5102620;27;92148;-59
2023/04/27 05:33:38;;;;;;;0.40;0.40;;;;;;;;;;5116888;27;91469;-59
2023/04/27 05:36:06;;;;;;;0.40;0.40;;;;;;;;;;5122584;27;94024;-59
2023/04/27 05:38:38;;;;;;;0.50;0.50;;;;;;;;;;5123282;27;93771;-59
2023/04/27 05:41:07;;;;;;;0.30;0.23;;;;;;;;;;5109659;27;92725;-61
2023/04/27 05:43:38;;;;;;;0.50;0.50;;;;;;;;;;5102339;27;91918;-61
2023/04/27 05:46:06;;;;;;;0.40;0.30;;;;;;;;;;5101413;27;94164;-59
2023/04/27 05:48:35;;;;;;;0.50;0.50;;;;;;;;;;5101607;27;93898;-59
2023/04/27 05:51:03;;;;;;;0.50;0.50;;;;;;;;;;5101938;27;92097;-59
2023/04/27 05:53:33;;;;;;;0.63;0.63;;;;;;;;;;5101851;27;94701;-60
2023/04/27 05:56:03;;;;;;;0.30;0.30;;;;;;;;;;5100818;27;94090;-60
2023/04/27 05:58:31;;;;;;;0.50;0.50;;;;;;;;;;5101772;27;93881;-59
2023/04/27 06:01:02;;;;;;;0.70;0.70;;;;;;;;;;5101521;27;91934;-59
2023/04/27 06:03:31;;;;;;;0.43;0.43;;;;;;;;;;5101689;27;92105;-59
2023/04/27 06:06:00;;;;;;;0.60;0.40;;;;;;;;;;5100523;27;95114;-59
2023/04/27 06:08:28;;;;;;;0.20;0.20;;;;;;;;;;5100043;27;94750;-58
2023/04/27 06:10:57;;;;;;;0.40;0.40;;;;;;;;;;5101879;27;92059;-61
2023/04/27 06:13:25;;;;;;;0.83;0.40;;;;;;;;;;5101464;27;92029;-62
2023/04/27 06:15:54;;;;;;;0.63;0.60;;;;;;;;;;5100617;27;94056;-61
2023/04/27 06:18:23;;;;;;;0.60;0.60;;;;;;;;;;5100827;27;93673;-59
2023/04/27 06:20:52;;;;;;;0.40;0.40;;;;;;;;;;5101464;27;93103;-59
2023/04/27 06:23:20;;;;;;;0.60;0.60;;;;;;;;;;5101976;27;91141;-61
2023/04/27 06:25:49;;;;;;;0.40;0.40;;;;;;;;;;5100025;27;94162;-59
2023/04/27 06:28:17;;;;;;;0.90;0.63;;;;;;;;;;5100361;27;93720;-59
2023/04/27 06:30:46;;;;;;;0.47;0.37;;;;;;;;;;5100519;27;93054;-59
2023/04/27 06:33:14;;;;;;;0.80;0.50;;;;;;;;;;5100669;27;92820;-59
2023/04/27 06:35:44;;;;;;;0.30;0.30;;;;;;;;;;5100167;27;93041;-59
2023/04/27 06:38:14;;;;;;;0.47;0.47;;;;;;;;;;5099762;27;93718;-59
2023/04/27 06:40:43;;;;;;;0.63;0.63;;;;;;;;;;5100967;27;92065;-58
2023/04/27 06:43:12;;;;;;;0.60;0.60;;;;;;;;;;5100554;27;92052;-59
2023/04/27 06:45:41;;;;;;;0.50;0.50;;;;;;;;;;5100166;27;93880;-59
2023/04/27 06:48:10;;;;;;;0.63;0.63;;;;;;;;;;5100472;27;93959;-59
2023/04/27 06:50:38;;;;;;;0.67;0.67;;;;;;;;;;5093763;27;92045;-59
2023/04/27 06:53:08;;;;;;;0.40;0.40;;;;;;;;;;5082895;27;92267;-59
2023/04/27 06:55:37;;;;;;;1.03;0.43;;;;;;;;;;5112376;27;94932;-59
2023/04/27 06:58:07;;;;;;;0.50;0.50;;;;;;;;;;5099605;27;94925;-59
2023/04/27 07:00:35;;;;;;;1.07;0.70;;;;;;;;;;5104713;27;91894;-59
2023/04/27 07:03:04;;;;;;;0.50;0.50;;;;;;;;;;5100657;27;92052;-59
2023/04/27 07:05:34;;;;;;;0.40;0.40;;;;;;;;;;5099379;27;95124;-58
2023/04/27 07:08:03;;;;;;;0.47;0.37;;;;;;;;;;5100497;27;92975;-59
2023/04/27 07:10:37;;;;;;;0.40;0.40;;;;;;;;;;5100756;27;92099;-61
2023/04/27 07:13:06;;;;;;;0.60;0.50;;;;;;;;;;5100225;27;91417;-61
2023/04/27 07:15:36;;;;;;;0.63;0.50;;;;;;;;;;5109958;27;94223;-61
2023/04/27 07:18:05;;;;;;;0.70;0.70;;;;;;;;;;5120575;27;94079;-61
2023/04/27 07:20:33;;;;;;;0.40;0.40;;;;;;;;;;5120620;27;93000;-60
2023/04/27 07:23:02;;;;;;;0.40;0.40;;;;;;;;;;5121530;27;92152;-61
2023/04/27 07:25:31;;;;;;;0.40;0.40;;;;;;;;;;5121336;27;94087;-61
2023/04/27 07:28:01;;;;;;;0.57;0.57;;;;;;;;;;5121485;27;92019;-60
2023/04/27 07:30:33;;;;;;;0.90;0.50;;;;;;;;;;5121483;27;91865;-59
2023/04/27 07:33:01;;;;;;;1.07;0.60;;;;;;;;;;5121384;27;91965;-61
2023/04/27 07:35:30;;;;;;;0.40;0.40;;;;;;;;;;5120888;27;94141;-60
2023/04/27 07:37:59;;;;;;;0.50;0.50;;;;;;;;;;5121145;27;93742;-61
2023/04/27 07:40:28;;;;;;;0.80;0.80;;;;;;;;;;5121085;27;92137;-61
2023/04/27 07:42:57;;;;;;;0.47;0.47;;;;;;;;;;5122148;27;92193;-61
2023/04/27 07:45:31;;;;;;;0.83;0.60;;;;;;;;;;5123764;27;95091;-60
2023/04/27 07:48:00;;;;;;;0.50;0.50;;;;;;;;;;5124710;27;93566;-60
2023/04/27 07:50:29;;;;;;;0.43;0.40;;;;;;;;;;5125150;27;92098;-61
2023/04/27 07:52:58;;;;;;;0.60;0.60;;;;;;;;;;5107248;27;92469;-60
2023/04/27 07:55:26;;;;;;;0.50;0.50;;;;;;;;;;5102918;27;94120;-60
2023/04/27 07:57:54;;;;;;;0.50;0.50;;;;;;;;;;5103307;27;93846;-61
2023/04/27 08:00:24;;;;;;;0.40;0.40;;;;;;;;;;5103022;27;93886;-60
2023/04/27 08:02:54;;;;;;;0.43;0.43;;;;;;;;;;5103381;27;91327;-61
2023/04/27 08:05:23;;;;;;;1.13;0.80;;;;;;;;;;5095635;27;94145;-61
2023/04/27 08:07:52;;;;;;;0.60;0.60;;;;;;;;;;5113100;27;93604;-61
2023/04/27 08:10:22;;;;;;;0.60;0.60;;;;;;;;;;5121904;27;93138;-60
2023/04/27 08:12:50;;;;;;;0.47;0.47;;;;;;;;;;5104053;27;91996;-61
2023/04/27 08:15:18;;;;;;;0.83;0.47;;;;;;;;;;5102963;27;94187;-61
2023/04/27 08:17:47;;;;;;;0.60;0.60;;;;;;;;;;5103360;27;94330;-61
2023/04/27 08:20:17;;;;;;;0.30;0.30;;;;;;;;;;5103315;27;92036;-60
2023/04/27 08:22:45;;;;;;;1.00;0.47;;;;;;;;;;5107503;27;92265;-61
2023/04/27 08:25:14;;;;;;;0.63;0.60;;;;;;;;;;5123592;27;94157;-61
2023/04/27 08:27:42;;;;;;;0.60;0.50;;;;;;;;;;5124220;27;93953;-61
2023/04/27 08:30:11;;;;;;;0.60;0.60;;;;;;;;;;5124116;27;92097;-61
2023/04/27 08:32:40;;;;;;;0.77;0.67;;;;;;;;;;5123867;27;92195;-60
2023/04/27 08:35:08;;;;;;;0.60;0.60;;;;;;;;;;5123365;27;95266;-61
2023/04/27 08:37:38;;;;;;;0.77;0.60;;;;;;;;;;5123352;27;94862;-61
2023/04/27 08:40:08;;;;;;;0.60;0.60;;;;;;;;;;5117207;27;92165;-61
2023/04/27 08:42:37;;;;;;;0.50;0.50;;;;;;;;;;5103063;27;92838;-60
2023/04/27 08:45:07;;;;;;;0.67;0.67;;;;;;;;;;5102807;27;93995;-61
2023/04/27 08:47:35;;;;;;;0.70;0.70;;;;;;;;;;5102051;27;93757;-61
2023/04/27 08:50:11;;;;;;;1.50;1.10;;;;;;;;;;5090744;27;92058;-61
2023/04/27 08:52:41;;;;;;;0.37;0.37;;;;;;;;;;5082441;27;91308;-61
2023/04/27 08:55:11;;;;;;;0.43;0.43;;;;;;;;;;5081171;27;94181;-61
2023/04/27 08:57:43;;;;;;;0.43;0.43;;;;;;;;;;5081731;27;93982;-60
2023/04/27 09:00:12;;;;;;;0.43;0.43;;;;;;;;;;5081655;27;92848;-61
2023/04/27 09:02:46;;;;;;;0.40;0.40;;;;;;;;;;5082166;27;92044;-61
2023/04/27 09:05:18;;;;;;;0.60;0.60;;;;;;;;;;5099759;27;94455;-60
2023/04/27 09:07:58;;;;;;;1.17;0.60;;;;;;;;;;5101768;27;93871;-61
2023/04/27 09:10:27;;;;;;;0.83;0.60;;;;;;;;;;5102738;27;92051;-60
2023/04/27 09:12:57;;;;;;;0.90;0.83;;;;;;;;;;5103388;27;92075;-60
2023/04/27 09:15:26;;;;;;;0.50;0.50;;;;;;;;;;5102179;27;94277;-60
2023/04/27 09:17:55;;;;;;;0.80;0.60;;;;;;;;;;5102642;27;93711;-60
2023/04/27 09:20:25;;;;;;;1.83;0.60;;;;;;;;;;5102585;27;92141;-60
2023/04/27 09:22:54;;;;;;;0.83;0.83;;;;;;;;;;5102777;27;92060;-60
2023/04/27 09:25:24;;;;;;;0.50;0.50;;;;;;;;;;5085067;27;95125;-60
2023/04/27 09:27:53;;;;;;;0.53;0.53;;;;;;;;;;5081289;27;93387;-61
2023/04/27 09:30:21;;;;;;;0.37;0.37;;;;;;;;;;5081676;27;92070;-61
2023/04/27 09:32:51;;;;;;;0.50;0.50;;;;;;;;;;5081769;27;92090;-60
2023/04/27 09:35:21;;;;;;;0.30;0.30;;;;;;;;;;5095437;27;93152;-60
2023/04/27 09:37:51;;;;;;;0.83;0.60;;;;;;;;;;5101717;27;93767;-61
2023/04/27 09:40:22;;;;;;;0.97;0.67;;;;;;;;;;5098715;27;92102;-61
2023/04/27 09:42:52;;;;;;;1.23;0.50;;;;;;;;;;5099660;27;91284;-61
2023/04/27 09:45:21;;;;;;;1.40;0.70;;;;;;;;;;5099365;27;94167;-61
2023/04/27 09:47:49;;;;;;;0.50;0.50;;;;;;;;;;5081062;27;93922;-61
2023/04/27 09:50:17;;;;;;;0.50;0.50;;;;;;;;;;5080836;27;92795;-59
2023/04/27 09:52:46;;;;;;;0.80;0.60;;;;;;;;;;5081171;27;92011;-61
2023/04/27 09:55:16;;;;;;;0.80;0.70;;;;;;;;;;5080987;27;93834;-61
2023/04/27 09:57:50;;;;;;;0.43;0.43;;;;;;;;;;5081016;27;93933;-61
2023/04/27 10:00:24;;;;;;;1.33;0.63;;;;;;;;;;5082388;27;92269;-61
2023/04/27 10:02:56;;;;;;;0.50;0.50;;;;;;;;;;5098761;27;92108;-61
2023/04/27 10:05:31;;;;;;;0.50;0.50;;;;;;;;;;5100639;27;94070;-61
2023/04/27 10:07:59;;;;;;;0.70;0.70;;;;;;;;;;5101585;27;93850;-61
2023/04/27 10:10:27;;;;;;;0.90;0.60;;;;;;;;;;5099274;27;91832;-60
2023/04/27 10:12:56;;;;;;;0.73;0.67;;;;;;;;;;5100764;27;91973;-61
2023/04/27 10:15:29;;;;;;;0.60;0.60;;;;;;;;;;5100371;27;95106;-61
2023/04/27 10:18:04;;;;;;;3.40;0.83;;;;;;;;;;5101266;27;94617;-61
2023/04/27 10:20:33;;;;;;;0.50;0.50;;;;;;;;;;5101867;27;91903;-61
2023/04/27 10:23:01;;;;;;;0.70;0.60;;;;;;;;;;5099848;27;92162;-61
2023/04/27 10:25:30;;;;;;;0.70;0.70;;;;;;;;;;5101265;27;94954;-61
2023/04/27 10:27:59;;;;;;;0.40;0.40;;;;;;;;;;5100757;27;93855;-61
2023/04/27 10:30:32;;;;;;;0.33;0.30;;;;;;;;;;5101752;27;92043;-61
2023/04/27 10:33:06;;;;;;;0.50;0.50;;;;;;;;;;5101961;27;91244;-60
2023/04/27 10:35:35;;;;;;;0.60;0.60;;;;;;;;;;5100313;27;94092;-61
2023/04/27 10:38:07;;;;;;;0.60;0.60;;;;;;;;;;5098970;27;93891;-61
2023/04/27 10:40:36;;;;;;;0.37;0.37;;;;;;;;;;5096017;27;93047;-68
2023/04/27 10:43:11;;;;;;;0.70;0.70;;;;;;;;;;5107424;27;92091;-68
2023/04/27 10:45:41;;;;;;;0.40;0.40;;;;;;;;;;5097630;27;92660;-69
2023/04/27 10:48:09;;;;;;;0.67;0.67;;;;;;;;;;5082607;27;93785;-68
2023/04/27 10:50:38;;;;;;;0.40;0.40;;;;;;;;;;5088496;27;92141;-68
2023/04/27 10:53:07;;;;;;;1.30;0.60;;;;;;;;;;5100447;27;92048;-68
2023/04/27 10:55:36;;;;;;;0.60;0.60;;;;;;;;;;5100232;27;94089;-68
2023/04/27 10:58:04;;;;;;;0.60;0.50;;;;;;;;;;5100820;27;92724;-68
2023/04/27 11:00:34;;;;;;;0.63;0.60;;;;;;;;;;5100447;27;92061;-68
2023/04/27 11:03:14;;;;;;;0.70;0.50;;;;;;;;;;5100753;27;91955;-69
2023/04/27 11:05:43;;;;;;;0.97;0.70;;;;;;;;;;5095359;27;94966;-69
2023/04/27 11:08:12;;;;;;;0.63;0.60;;;;;;;;;;5104346;27;94791;-68
2023/04/27 11:10:41;;;;;;;0.40;0.40;;;;;;;;;;5101479;27;91992;-69
2023/04/27 11:13:10;;;;;;;0.33;0.33;;;;;;;;;;5114994;27;91975;-66
2023/04/27 11:15:45;;;;;;;0.90;0.60;;;;;;;;;;5101532;27;94176;-66
2023/04/27 11:18:16;;;;;;;1.03;0.70;;;;;;;;;;5105131;27;93976;-66
2023/04/27 11:20:44;;;;;;;0.40;0.40;;;;;;;;;;5105349;27;92056;-67
2023/04/27 11:23:18;;;;;;;0.77;0.50;;;;;;;;;;5104570;27;91829;-69
2023/04/27 11:25:46;;;;;;;0.47;0.47;;;;;;;;;;5103351;27;94505;-67
2023/04/27 11:28:18;;;;;;;1.60;0.60;;;;;;;;;;5103477;27;93652;-67
2023/04/27 11:30:48;;;;;;;0.30;0.30;;;;;;;;;;5103704;27;93743;-67
2023/04/27 11:33:18;;;;;;;0.47;0.43;;;;;;;;;;5104043;27;92048;-67
2023/04/27 11:35:46;;;;;;;0.50;0.50;;;;;;;;;;5103299;27;94146;-66
2023/04/27 11:38:17;;;;;;;1.60;1.00;;;;;;;;;;5103109;27;93777;-67
2023/04/27 11:40:46;;;;;;;0.53;0.33;;;;;;;;;;5104105;27;92102;-67
2023/04/27 11:43:15;;;;;;;1.00;0.60;;;;;;;;;;5103541;27;91954;-67
2023/04/27 11:45:43;;;;;;;0.80;0.70;;;;;;;;;;5102699;27;94106;-67
2023/04/27 11:48:15;;;;;;;0.43;0.40;;;;;;;;;;5103053;27;93921;-67
2023/04/27 11:50:48;;;;;;;0.60;0.60;;;;;;;;;;5102471;27;92256;-68
2023/04/27 11:53:16;;;;;;;0.40;0.40;;;;;;;;;;5102834;27;91848;-67
2023/04/27 11:55:52;;;;;;;0.30;0.30;;;;;;;;;;5101944;27;94910;-67
2023/04/27 11:58:20;;;;;;;0.90;0.60;;;;;;;;;;5103274;27;95130;-67
2023/04/27 12:00:49;;;;;;;0.50;0.40;;;;;;;;;;5103662;27;92075;-67
2023/04/27 12:03:17;;;;;;;0.40;0.40;;;;;;;;;;5103742;27;92107;-67
2023/04/27 12:05:50;;;;;;;5.20;0.50;;;;;;;;;;5103037;27;94578;-67
2023/04/27 12:08:18;;;;;;;0.83;0.83;;;;;;;;;;5103397;27;94123;-66
2023/04/27 12:10:47;;;;;;;0.60;0.50;;;;;;;;;;5104057;27;92051;-66
2023/04/27 12:13:15;;;;;;;0.60;0.60;;;;;;;;;;5103707;27;91260;-67
2023/04/27 12:15:44;;;;;;;0.30;0.30;;;;;;;;;;5102385;27;93969;-66
2023/04/27 12:18:12;;;;;;;1.13;0.50;;;;;;;;;;5103284;27;93866;-69
2023/04/27 12:20:41;;;;;;;0.50;0.50;;;;;;;;;;5102873;27;92864;-68
2023/04/27 12:23:11;;;;;;;0.70;0.70;;;;;;;;;;5102142;27;92102;-66
2023/04/27 12:25:42;;;;;;;4.80;0.70;;;;;;;;;;5103155;27;94054;-68
2023/04/27 12:28:17;;;;;;;0.40;0.40;;;;;;;;;;5098561;27;92771;-66
2023/04/27 12:30:46;;;;;;;0.50;0.40;;;;;;;;;;5081182;27;92198;-67
2023/04/27 12:33:15;;;;;;;1.80;0.77;;;;;;;;;;5080671;27;92103;-66
2023/04/27 12:35:44;;;;;;;0.40;0.40;;;;;;;;;;5081295;27;94077;-68
2023/04/27 12:38:13;;;;;;;0.50;0.50;;;;;;;;;;5082487;27;93963;-67
2023/04/27 12:40:42;;;;;;;4.23;0.53;;;;;;;;;;5082243;27;92007;-67
2023/04/27 12:43:11;;;;;;;0.53;0.53;;;;;;;;;;5092891;27;92031;-67
2023/04/27 12:45:40;;;;;;;0.63;0.53;;;;;;;;;;5120913;27;95558;-66
2023/04/27 12:48:08;;;;;;;0.80;0.70;;;;;;;;;;5118165;27;94477;-66
2023/04/27 12:50:37;;;;;;;0.40;0.30;;;;;;;;;;5086056;27;92151;-73
2023/04/27 12:53:06;;;;;;;0.43;0.43;;;;;;;;;;5095512;27;92139;-63
2023/04/27 12:55:37;;;;;;;0.63;0.30;;;;;;;;;;5099987;27;94247;-63
2023/04/27 12:58:06;;;;;;;2.37;1.23;;;;;;;;;;5103255;27;93705;-63
2023/04/27 13:00:34;;;;;;;4.30;1.60;;;;;;;;;;5101210;27;91971;-63
2023/04/27 13:03:03;;;;;;;3.30;1.63;;;;;;;;;;5101578;27;91409;-63
2023/04/27 13:05:32;;;;;;;4.10;1.87;;;;;;;;;;5094981;27;94142;-63
2023/04/27 13:08:00;;;;;;;3.37;1.00;;;;;;;;;;5100520;27;93922;-63
2023/04/27 13:10:29;;;;;;;4.87;1.20;;;;;;;;;;5099511;27;93154;-63
2023/04/27 13:13:00;;;;;;;6.13;1.10;;;;;;;;;;5100871;27;92129;-72
2023/04/27 13:15:28;;;;;;;3.30;1.20;;;;;;;;;;5100583;27;92866;-65
2023/04/27 13:17:57;;;;;;;2.00;1.27;;;;;;;;;;5091772;27;93913;-65
2023/04/27 13:20:26;;;;;;;2.00;0.90;;;;;;;;;;5115011;27;92121;-63
2023/04/27 13:22:54;;;;;;;1.23;1.00;;;;;;;;;;5123999;27;92058;-63
2023/04/27 13:25:24;;;;;;;4.30;0.90;;;;;;;;;;5143645;27;92979;-64
2023/04/27 13:27:52;;;;;;;4.43;0.83;;;;;;;;;;5146747;27;92629;-63
2023/04/27 13:30:22;;;;;;;3.33;0.67;;;;;;;;;;5146029;27;91612;-65
2023/04/27 13:32:51;;;;;;;1.40;0.90;;;;;;;;;;5129597;27;91431;-64
2023/04/27 13:35:19;;;;;;;6.20;1.07;;;;;;;;;;5104736;27;93685;-66
2023/04/27 13:37:48;;;;;;;3.43;1.37;;;;;;;;;;5091924;27;94892;-64
2023/04/27 13:40:16;;;;;;;2.13;1.03;;;;;;;;;;5099688;27;91985;-64
2023/04/27 13:42:45;;;;;;;2.50;1.00;;;;;;;;;;5101554;27;92177;-64
2023/04/27 13:45:13;;;;;;;1.87;1.20;;;;;;;;;;5122353;27;94202;-64
2023/04/27 13:47:43;;;;;;;3.90;1.83;;;;;;;;;;5109592;27;93884;-64
2023/04/27 13:50:12;;;;;;;3.43;1.70;;;;;;;;;;5081918;27;92138;-64
2023/04/27 13:52:41;;;;;;;3.33;1.60;;;;;;;;;;5081650;27;91246;-64
2023/04/27 13:55:10;;;;;;;3.40;1.73;;;;;;;;;;5097785;27;92840;-64
2023/04/27 13:57:38;;;;;;;2.67;1.83;;;;;;;;;;5101716;27;93940;-64
2023/04/27 14:00:10;;;;;;;2.37;1.80;;;;;;;;;;5110885;27;93031;-64
2023/04/27 14:02:38;;;;;;;3.27;1.83;;;;;;;;;;5081350;27;92098;-64
2023/04/27 14:05:09;;;;;;;2.17;1.60;;;;;;;;;;5080782;27;94184;-64
2023/04/27 14:07:37;;;;;;;2.83;2.13;;;;;;;;;;5080137;27;93784;-64
2023/04/27 14:10:06;;;;;;;4.63;1.90;;;;;;;;;;5080691;27;92145;-64
2023/04/27 14:12:35;;;;;;;2.63;1.93;;;;;;;;;;5091396;27;92486;-64
2023/04/27 14:15:03;;;;;;;2.13;1.57;;;;;;;;;;5091328;27;94178;-64
2023/04/27 14:17:31;;;;;;;1.53;1.30;;;;;;;;;;5105457;27;93716;-64
2023/04/27 14:20:00;;;;;;;2.07;1.53;;;;;;;;;;5093624;27;93222;-64
2023/04/27 14:22:30;;;;;;;5.23;1.83;;;;;;;;;;5101006;27;92096;-64
2023/04/27 14:24:58;;;;;;;1.90;1.80;;;;;;;;;;5100357;27;95054;-64
2023/04/27 14:27:27;;;;;;;2.43;1.87;;;;;;;;;;5100307;27;94780;-64
2023/04/27 14:29:55;;;;;;;2.57;1.63;;;;;;;;;;5086007;27;92035;-64
2023/04/27 14:32:23;;;;;;;4.00;1.87;;;;;;;;;;5083617;27;92755;-64
2023/04/27 14:34:52;;;;;;;4.53;1.50;;;;;;;;;;5101285;27;94248;-64
2023/04/27 14:37:21;;;;;;;2.00;1.40;;;;;;;;;;5086702;27;94736;-64
2023/04/27 14:39:51;;;;;;;4.50;1.70;;;;;;;;;;5092097;27;92116;-64
2023/04/27 14:42:20;;;;;;;2.90;1.40;;;;;;;;;;5086999;27;92968;-64
2023/04/27 14:44:48;;;;;;;2.53;1.80;;;;;;;;;;5075560;27;93925;-64
2023/04/27 14:47:17;;;;;;;2.80;1.37;;;;;;;;;;5083659;27;93813;-64
2023/04/27 14:49:46;;;;;;;2.13;1.63;;;;;;;;;;5080457;27;94678;-64
2023/04/27 14:52:14;;;;;;;1.83;1.30;;;;;;;;;;5079292;27;93726;-64
2023/04/27 14:54:43;;;;;;;2.37;1.37;;;;;;;;;;5074828;27;94048;-64